createdAt,value
2018-08-16T00:00:19.693Z,100502.00
2018-08-16T00:02:47.590Z,100495.00
2018-08-16T00:05:15.919Z,100498.00
2018-08-16T00:07:43.860Z,100502.00
2018-08-16T00:10:13.783Z,100495.00
2018-08-16T00:12:42.896Z,100496.00
2018-08-16T00:15:10.742Z,100487.00
2018-08-16T00:17:39.271Z,100486.00
2018-08-16T00:20:07.203Z,100489.00
2018-08-16T00:22:35.078Z,100491.00
2018-08-16T00:25:03.115Z,100493.00
2018-08-16T00:27:30.972Z,100494.00
2018-08-16T00:29:58.852Z,100494.00
2018-08-16T00:32:26.750Z,100494.00
2018-08-16T00:34:55.322Z,100495.00
2018-08-16T00:37:23.464Z,100491.00
2018-08-16T00:39:51.328Z,100499.00
2018-08-16T00:42:19.162Z,100496.00
2018-08-16T00:44:47.397Z,100489.00
2018-08-16T00:47:15.318Z,100489.00
2018-08-16T00:49:43.232Z,100492.00
2018-08-16T00:52:11.089Z,100496.00
2018-08-16T00:54:38.959Z,100491.00
2018-08-16T00:57:06.879Z,100491.00
2018-08-16T00:59:34.794Z,100490.00
2018-08-16T01:02:02.714Z,100490.00
2018-08-16T01:04:30.587Z,100489.00
2018-08-16T01:06:58.539Z,100487.00
2018-08-16T01:09:26.332Z,100489.00
2018-08-16T01:11:54.291Z,100484.00
2018-08-16T01:14:22.131Z,100476.00
2018-08-16T01:16:50.015Z,100480.00
2018-08-16T01:19:17.816Z,100484.00
2018-08-16T01:21:45.717Z,100484.00
2018-08-16T01:24:13.612Z,100482.00
2018-08-16T01:26:41.498Z,100485.00
2018-08-16T01:29:09.244Z,100484.00
2018-08-16T01:31:37.120Z,100488.00
2018-08-16T01:34:04.944Z,100491.00
2018-08-16T01:36:32.685Z,100491.00
2018-08-16T01:39:00.540Z,100489.00
2018-08-16T01:41:28.395Z,100498.00
2018-08-16T01:43:56.264Z,100489.00
2018-08-16T01:46:24.139Z,100483.00
2018-08-16T01:48:51.993Z,100486.00
2018-08-16T01:51:19.856Z,100476.00
2018-08-16T01:53:47.671Z,100478.00
2018-08-16T01:56:15.573Z,100475.00
2018-08-16T01:58:43.461Z,100482.00
2018-08-16T02:01:11.413Z,100476.00
2018-08-16T02:03:39.209Z,100474.00
2018-08-16T02:06:07.172Z,100473.00
2018-08-16T02:08:35.073Z,100473.00
2018-08-16T02:11:02.911Z,100465.00
2018-08-16T02:13:30.707Z,100464.00
2018-08-16T02:15:58.588Z,100462.00
2018-08-16T02:18:26.477Z,100463.00
2018-08-16T02:20:54.312Z,100465.00
2018-08-16T02:23:22.152Z,100466.00
2018-08-16T02:25:50.024Z,100462.00
2018-08-16T02:28:17.892Z,100470.00
2018-08-16T02:30:45.824Z,100467.00
2018-08-16T02:33:13.613Z,100471.00
2018-08-16T02:35:41.495Z,100468.00
2018-08-16T02:38:09.363Z,100466.00
2018-08-16T02:40:40.700Z,100462.00
2018-08-16T02:43:08.525Z,100466.00
2018-08-16T02:45:36.393Z,100464.00
2018-08-16T02:48:04.255Z,100471.00
2018-08-16T02:50:32.114Z,100473.00
2018-08-16T02:52:59.992Z,100468.00
2018-08-16T02:55:27.843Z,100463.00
2018-08-16T02:57:55.752Z,100460.00
2018-08-16T03:00:23.608Z,100465.00
2018-08-16T03:02:51.415Z,100459.00
2018-08-16T03:05:19.272Z,100473.00
2018-08-16T03:07:47.169Z,100468.00
2018-08-16T03:10:15.001Z,100462.00
2018-08-16T03:12:42.860Z,100463.00
2018-08-16T03:15:10.829Z,100462.00
2018-08-16T03:17:39.159Z,100456.00
2018-08-16T03:20:07.348Z,100462.00
2018-08-16T03:22:35.141Z,100461.00
2018-08-16T03:25:02.970Z,100466.00
2018-08-16T03:27:30.777Z,100456.00
2018-08-16T03:29:58.620Z,100469.00
2018-08-16T03:32:26.608Z,100462.00
2018-08-16T03:34:54.488Z,100467.00
2018-08-16T03:37:22.409Z,100465.00
2018-08-16T03:39:50.263Z,100465.00
2018-08-16T03:42:18.067Z,100455.00
2018-08-16T03:44:45.989Z,100467.00
2018-08-16T03:47:13.891Z,100467.00
2018-08-16T03:49:41.808Z,100470.00
2018-08-16T03:52:09.648Z,100475.00
2018-08-16T03:54:37.501Z,100465.00
2018-08-16T03:57:05.341Z,100468.00
2018-08-16T03:59:33.136Z,100469.00
2018-08-16T04:02:01.033Z,100468.00
2018-08-16T04:04:28.877Z,100468.00
2018-08-16T04:06:56.744Z,100463.00
2018-08-16T04:09:24.621Z,100469.00
2018-08-16T04:11:52.508Z,100464.00
2018-08-16T04:14:20.344Z,100463.00
2018-08-16T04:16:48.190Z,100468.00
2018-08-16T04:19:15.988Z,100470.00
2018-08-16T04:21:43.821Z,100467.00
2018-08-16T04:24:11.640Z,100463.00
2018-08-16T04:26:39.516Z,100466.00
2018-08-16T04:29:07.638Z,100469.00
2018-08-16T04:31:35.396Z,100467.00
2018-08-16T04:34:03.281Z,100472.00
2018-08-16T04:36:31.139Z,100470.00
2018-08-16T04:38:59.041Z,100470.00
2018-08-16T04:41:26.918Z,100475.00
2018-08-16T04:43:54.773Z,100464.00
2018-08-16T04:46:22.564Z,100472.00
2018-08-16T04:48:50.385Z,100463.00
2018-08-16T04:51:18.252Z,100474.00
2018-08-16T04:53:46.095Z,100472.00
2018-08-16T04:56:13.917Z,100469.00
2018-08-16T04:58:41.822Z,100477.00
2018-08-16T05:01:09.704Z,100476.00
2018-08-16T05:03:37.523Z,100476.00
2018-08-16T05:06:05.569Z,100467.00
2018-08-16T05:08:33.396Z,100474.00
2018-08-16T05:11:01.299Z,100471.00
2018-08-16T05:13:29.135Z,100474.00
2018-08-16T05:15:56.944Z,100476.00
2018-08-16T05:18:24.800Z,100472.00
2018-08-16T05:20:52.668Z,100471.00
2018-08-16T05:23:20.560Z,100468.00
2018-08-16T05:25:48.533Z,100469.00
2018-08-16T05:28:16.312Z,100457.00
2018-08-16T05:30:44.221Z,100463.00
2018-08-16T05:33:12.048Z,100457.00
2018-08-16T05:35:39.926Z,100464.00
2018-08-16T05:38:07.740Z,100455.00
2018-08-16T05:40:35.583Z,100454.00
2018-08-16T05:43:03.532Z,100456.00
2018-08-16T05:45:31.341Z,100456.00
2018-08-16T05:47:59.237Z,100460.00
2018-08-16T05:50:27.040Z,100456.00
2018-08-16T05:52:54.925Z,100456.00
2018-08-16T05:55:22.752Z,100459.00
2018-08-16T05:57:50.596Z,100467.00
2018-08-16T06:00:18.484Z,100461.00
2018-08-16T06:02:46.373Z,100457.00
2018-08-16T06:05:14.163Z,100464.00
2018-08-16T06:07:42.036Z,100465.00
2018-08-16T06:10:10.025Z,100464.00
2018-08-16T06:12:38.127Z,100466.00
2018-08-16T06:15:07.547Z,100467.00
2018-08-16T06:17:35.409Z,100468.00
2018-08-16T06:20:04.932Z,100467.00
2018-08-16T06:22:32.748Z,100466.00
2018-08-16T06:25:00.667Z,100468.00
2018-08-16T06:27:28.612Z,100461.00
2018-08-16T06:29:56.785Z,100456.00
2018-08-16T06:32:24.681Z,100457.00
2018-08-16T06:34:52.533Z,100466.00
2018-08-16T06:37:20.425Z,100457.00
2018-08-16T06:39:48.351Z,100458.00
2018-08-16T06:42:16.314Z,100460.00
2018-08-16T06:44:44.200Z,100459.00
2018-08-16T06:47:14.625Z,100463.00
2018-08-16T06:49:42.845Z,100456.00
2018-08-16T06:52:10.717Z,100462.00
2018-08-16T06:54:38.636Z,100461.00
2018-08-16T06:57:06.659Z,100465.00
2018-08-16T06:59:34.642Z,100471.00
2018-08-16T07:02:02.661Z,100470.00
2018-08-16T07:04:30.476Z,100464.00
2018-08-16T07:06:58.316Z,100464.00
2018-08-16T07:09:26.180Z,100456.00
2018-08-16T07:11:54.049Z,100457.00
2018-08-16T07:14:21.859Z,100460.00
2018-08-16T07:16:49.745Z,100459.00
2018-08-16T07:19:17.653Z,100466.00
2018-08-16T07:21:45.548Z,100456.00
2018-08-16T07:24:13.451Z,100455.00
2018-08-16T07:26:41.357Z,100458.00
2018-08-16T07:29:09.220Z,100459.00
2018-08-16T07:31:37.093Z,100456.00
2018-08-16T07:34:05.095Z,100452.00
2018-08-16T07:36:33.041Z,100456.00
2018-08-16T07:39:00.829Z,100466.00
2018-08-16T07:41:28.700Z,100460.00
2018-08-16T07:43:56.593Z,100446.00
2018-08-16T07:46:24.522Z,100446.00
2018-08-16T07:48:52.796Z,100450.00
2018-08-16T07:51:20.905Z,100461.00
2018-08-16T07:53:48.523Z,100450.00
2018-08-16T07:56:16.423Z,100450.00
2018-08-16T07:58:44.328Z,100448.00
2018-08-16T08:01:12.191Z,100445.00
2018-08-16T08:03:40.062Z,100445.00
2018-08-16T08:06:07.953Z,100444.00
2018-08-16T08:08:35.867Z,100441.00
2018-08-16T08:11:03.741Z,100450.00
2018-08-16T08:13:31.720Z,100441.00
2018-08-16T08:15:59.634Z,100447.00
2018-08-16T08:18:27.807Z,100442.00
2018-08-16T08:20:55.727Z,100438.00
2018-08-16T08:23:23.632Z,100447.00
2018-08-16T08:25:51.597Z,100445.00
2018-08-16T08:28:19.512Z,100441.00
2018-08-16T08:30:47.408Z,100431.00
2018-08-16T08:33:15.264Z,100430.00
2018-08-16T08:35:54.371Z,100427.00
2018-08-16T08:38:22.271Z,100423.00
2018-08-16T08:40:50.160Z,100422.00
2018-08-16T08:43:35.328Z,100420.00
2018-08-16T08:46:03.157Z,100423.00
2018-08-16T08:48:31.554Z,100411.00
2018-08-16T08:50:59.455Z,100418.00
2018-08-16T08:54:51.576Z,100415.00
2018-08-16T08:57:37.193Z,100402.00
2018-08-16T09:00:07.840Z,100396.00
2018-08-16T09:02:35.800Z,100399.00
2018-08-16T09:05:05.003Z,100400.00
2018-08-16T09:07:32.952Z,100393.00
2018-08-16T09:11:16.278Z,100392.00
2018-08-16T09:14:05.757Z,100393.00
2018-08-16T09:16:41.401Z,100392.00
2018-08-16T09:19:10.109Z,100374.00
2018-08-16T09:21:38.001Z,100378.00
2018-08-16T09:24:05.969Z,100378.00
2018-08-16T09:26:41.114Z,100372.00
2018-08-16T09:31:29.427Z,100360.00
2018-08-16T09:34:21.700Z,100359.00
2018-08-16T09:36:49.573Z,100357.00
2018-08-16T09:39:17.457Z,100352.00
2018-08-16T09:41:45.326Z,100358.00
2018-08-16T09:44:13.192Z,100347.00
2018-08-16T09:47:05.636Z,100358.00
2018-08-16T09:49:35.579Z,100351.00
2018-08-16T09:52:04.764Z,100344.00
2018-08-16T09:54:32.675Z,100353.00
2018-08-16T09:57:01.777Z,100347.00
2018-08-16T09:59:29.704Z,100347.00
2018-08-16T10:01:57.573Z,100339.00
2018-08-16T10:04:25.536Z,100331.00
2018-08-16T10:06:53.456Z,100340.00
2018-08-16T10:09:24.471Z,100330.00
2018-08-16T10:11:52.615Z,100323.00
2018-08-16T10:14:20.849Z,100325.00
2018-08-16T10:16:48.716Z,100323.00
2018-08-16T10:19:16.553Z,100334.00
2018-08-16T10:21:44.424Z,100330.00
2018-08-16T10:24:12.389Z,100332.00
2018-08-16T10:26:40.273Z,100315.00
2018-08-16T10:29:09.717Z,100311.00
2018-08-16T10:31:37.557Z,100316.00
2018-08-16T10:34:05.420Z,100310.00
2018-08-16T10:36:33.335Z,100314.00
2018-08-16T10:39:01.169Z,100308.00
2018-08-16T10:41:29.461Z,100310.00
2018-08-16T10:43:57.384Z,100311.00
2018-08-16T10:46:25.253Z,100308.00
2018-08-16T10:48:53.169Z,100302.00
2018-08-16T10:51:21.068Z,100308.00
2018-08-16T10:53:48.956Z,100297.00
2018-08-16T10:56:16.858Z,100300.00
2018-08-16T10:58:44.761Z,100294.00
2018-08-16T11:01:12.677Z,100296.00
2018-08-16T11:03:40.601Z,100288.00
2018-08-16T11:06:08.492Z,100293.00
2018-08-16T11:08:36.384Z,100293.00
2018-08-16T11:11:04.460Z,100290.00
2018-08-16T11:13:32.320Z,100283.00
2018-08-16T11:16:00.131Z,100283.00
2018-08-16T11:18:27.928Z,100272.00
2018-08-16T11:20:55.800Z,100276.00
2018-08-16T11:23:23.700Z,100274.00
2018-08-16T11:25:51.608Z,100271.00
2018-08-16T11:28:19.463Z,100265.00
2018-08-16T11:30:47.325Z,100275.00
2018-08-16T11:33:15.220Z,100260.00
2018-08-16T11:35:43.099Z,100261.00
2018-08-16T11:38:10.928Z,100257.00
2018-08-16T11:40:38.854Z,100251.00
2018-08-16T11:43:06.617Z,100251.00
2018-08-16T11:45:34.419Z,100243.00
2018-08-16T11:48:02.232Z,100243.00
2018-08-16T11:50:30.184Z,100244.00
2018-08-16T11:52:58.037Z,100243.00
2018-08-16T11:55:25.920Z,100243.00
2018-08-16T11:57:53.828Z,100252.00
2018-08-16T12:00:21.752Z,100242.00
2018-08-16T12:02:49.640Z,100249.00
2018-08-16T12:05:17.529Z,100244.00
2018-08-16T12:07:45.449Z,100246.00
2018-08-16T12:10:13.269Z,100233.00
2018-08-16T12:12:41.134Z,100227.00
2018-08-16T12:18:00.304Z,100222.00
2018-08-16T12:20:27.844Z,100220.00
2018-08-16T12:22:55.332Z,100219.00
2018-08-16T12:25:22.830Z,100220.00
2018-08-16T12:27:50.328Z,100208.00
2018-08-16T12:30:17.835Z,100208.00
2018-08-16T12:32:45.323Z,100209.00
2018-08-16T12:35:12.840Z,100200.00
2018-08-16T12:37:40.393Z,100199.00
2018-08-16T12:40:07.875Z,100196.00
2018-08-16T12:42:35.375Z,100202.00
2018-08-16T12:45:03.232Z,100197.00
2018-08-16T12:47:30.758Z,100199.00
2018-08-16T12:49:58.277Z,100191.00
2018-08-16T12:52:25.788Z,100188.00
2018-08-16T12:54:53.283Z,100188.00
2018-08-16T12:57:20.795Z,100176.00
2018-08-16T12:59:48.320Z,100170.00
2018-08-16T13:02:15.831Z,100174.00
2018-08-16T13:04:43.336Z,100164.00
2018-08-16T13:07:10.844Z,100158.00
2018-08-16T13:09:38.347Z,100164.00
2018-08-16T13:12:05.872Z,100161.00
2018-08-16T13:14:33.373Z,100161.00
2018-08-16T13:17:00.891Z,100160.00
2018-08-16T13:19:28.383Z,100159.00
2018-08-16T13:21:55.905Z,100158.00
2018-08-16T13:24:23.436Z,100149.00
2018-08-16T13:26:50.958Z,100145.00
2018-08-16T13:29:18.663Z,100145.00
2018-08-16T13:31:46.179Z,100143.00
2018-08-16T13:34:13.681Z,100140.00
2018-08-16T13:36:41.196Z,100130.00
2018-08-16T13:39:11.463Z,100131.00
2018-08-16T13:41:39.140Z,100124.00
2018-08-16T13:44:06.791Z,100125.00
2018-08-16T13:46:34.290Z,100127.00
2018-08-16T13:49:01.835Z,100128.00
2018-08-16T13:51:29.357Z,100129.00
2018-08-16T13:53:56.867Z,100122.00
2018-08-16T13:56:24.376Z,100120.00
2018-08-16T13:58:51.889Z,100116.00
2018-08-16T14:01:19.402Z,100117.00
2018-08-16T14:03:46.903Z,100110.00
2018-08-16T14:06:14.415Z,100113.00
2018-08-16T14:08:41.919Z,100107.00
2018-08-16T14:11:09.431Z,100112.00
2018-08-16T14:13:36.923Z,100118.00
2018-08-16T14:16:04.423Z,100110.00
2018-08-16T14:18:31.960Z,100107.00
2018-08-16T14:20:59.464Z,100110.00
2018-08-16T14:23:33.691Z,100106.00
2018-08-16T14:26:01.264Z,100103.00
2018-08-16T14:28:28.902Z,100104.00
2018-08-16T14:30:56.411Z,100101.00
2018-08-16T14:33:23.914Z,100093.00
2018-08-16T14:35:51.417Z,100094.00
2018-08-16T14:38:18.936Z,100087.00
2018-08-16T14:40:46.451Z,100089.00
2018-08-16T14:43:13.951Z,100083.00
2018-08-16T14:45:41.443Z,100092.00
2018-08-16T14:48:09.604Z,100088.00
2018-08-16T14:50:38.180Z,100087.00
2018-08-16T14:53:05.796Z,100088.00
2018-08-16T14:55:33.304Z,100078.00
2018-08-16T14:58:00.815Z,100082.00
2018-08-16T15:00:28.348Z,100077.00
2018-08-16T15:02:55.866Z,100074.00
2018-08-16T15:05:23.388Z,100081.00
2018-08-16T15:07:50.900Z,100078.00
2018-08-16T15:10:18.391Z,100075.00
2018-08-16T15:12:46.034Z,100070.00
2018-08-16T15:15:13.548Z,100075.00
2018-08-16T15:17:41.052Z,100062.00
2018-08-16T15:20:08.559Z,100066.00
2018-08-16T15:22:36.059Z,100059.00
2018-08-16T15:25:04.446Z,100061.00
2018-08-16T15:27:31.952Z,100057.00
2018-08-16T15:29:59.459Z,100060.00
2018-08-16T15:32:26.963Z,100059.00
2018-08-16T15:34:54.468Z,100056.00
2018-08-16T15:37:22.003Z,100063.00
2018-08-16T15:39:49.483Z,100051.00
2018-08-16T15:42:16.995Z,100048.00
2018-08-16T15:44:44.502Z,100047.00
2018-08-16T15:47:11.995Z,100059.00
2018-08-16T15:49:39.516Z,100055.00
2018-08-16T15:52:07.019Z,100049.00
2018-08-16T15:54:34.523Z,100044.00
2018-08-16T15:57:02.038Z,100053.00
2018-08-16T15:59:29.612Z,100052.00
2018-08-16T16:01:57.135Z,100046.00
2018-08-16T16:04:24.642Z,100047.00
2018-08-16T16:06:52.175Z,100046.00
2018-08-16T16:09:19.680Z,100044.00
2018-08-16T16:11:47.202Z,100041.00
2018-08-16T16:14:14.711Z,100042.00
2018-08-16T16:16:42.212Z,100046.00
2018-08-16T16:19:09.724Z,100036.00
2018-08-16T16:21:37.218Z,100037.00
2018-08-16T16:24:04.783Z,100040.00
2018-08-16T16:26:32.294Z,100037.00
2018-08-16T16:28:59.803Z,100030.00
2018-08-16T16:31:27.317Z,100033.00
2018-08-16T16:33:54.824Z,100036.00
2018-08-16T16:36:22.332Z,100026.00
2018-08-16T16:38:49.838Z,100023.00
2018-08-16T16:41:17.384Z,100022.00
2018-08-16T16:43:44.896Z,100030.00
2018-08-16T16:46:12.388Z,100015.00
2018-08-16T16:48:39.903Z,100023.00
2018-08-16T16:51:07.450Z,100019.00
2018-08-16T16:53:34.971Z,100014.00
2018-08-16T16:56:02.476Z,100007.00
2018-08-16T16:58:29.995Z,100014.00
2018-08-16T17:00:57.496Z,100007.00
2018-08-16T17:03:24.987Z,100011.00
2018-08-16T17:05:52.488Z,100013.00
2018-08-16T17:08:20.008Z,100010.00
2018-08-16T17:10:47.521Z,100008.00
2018-08-16T17:13:15.063Z,100005.00
2018-08-16T17:15:42.579Z,100011.00
2018-08-16T17:18:10.079Z,100004.00
2018-08-16T17:20:37.598Z,100007.00
2018-08-16T17:23:05.175Z,100008.00
2018-08-16T17:25:32.660Z,100009.00
2018-08-16T17:28:00.159Z,100014.00
2018-08-16T17:30:27.667Z,100005.00
2018-08-16T17:32:55.408Z,100008.00
2018-08-16T17:35:23.068Z,100000.00
2018-08-16T17:37:50.587Z,99998.00
2018-08-16T17:40:18.091Z,99998.00
2018-08-16T17:42:45.608Z,100006.00
2018-08-16T17:45:13.202Z,99998.00
2018-08-16T17:47:40.760Z,100010.00
2018-08-16T17:50:08.319Z,100002.00
2018-08-16T17:52:35.815Z,100006.00
2018-08-16T17:55:03.367Z,99998.00
2018-08-16T17:57:30.874Z,100012.00
2018-08-16T17:59:58.405Z,100005.00
2018-08-16T18:02:25.913Z,100008.00
2018-08-16T18:04:53.422Z,100016.00
2018-08-16T18:07:20.935Z,100009.00
2018-08-16T18:09:48.447Z,100008.00
2018-08-16T18:12:15.963Z,100007.00
2018-08-16T18:14:43.479Z,99998.00
2018-08-16T18:17:10.976Z,100004.00
2018-08-16T18:19:38.491Z,100003.00
2018-08-16T18:22:06.531Z,99999.00
2018-08-16T18:24:34.043Z,100003.00
2018-08-16T18:27:01.547Z,100000.00
2018-08-16T18:29:29.051Z,100012.00
2018-08-16T18:31:56.546Z,99999.00
2018-08-16T18:34:24.065Z,100005.00
2018-08-16T18:36:51.658Z,100005.00
2018-08-16T18:39:19.087Z,100008.00
2018-08-16T18:41:46.604Z,100011.00
2018-08-16T18:44:14.119Z,100012.00
2018-08-16T18:46:41.614Z,100024.00
2018-08-16T18:49:09.144Z,100016.00
2018-08-16T18:51:36.682Z,100017.00
2018-08-16T18:54:04.216Z,100019.00
2018-08-16T18:56:31.732Z,100017.00
2018-08-16T18:58:59.251Z,100018.00
2018-08-16T19:01:26.768Z,100018.00
2018-08-16T19:03:54.283Z,100021.00
2018-08-16T19:06:21.786Z,100027.00
2018-08-16T19:08:49.308Z,100025.00
2018-08-16T19:11:16.850Z,100023.00
2018-08-16T19:13:44.359Z,100026.00
2018-08-16T19:16:11.863Z,100020.00
2018-08-16T19:18:39.404Z,100022.00
2018-08-16T19:21:06.911Z,100021.00
2018-08-16T19:23:34.420Z,100017.00
2018-08-16T19:26:02.036Z,100012.00
2018-08-16T19:28:29.556Z,100011.00
2018-08-16T19:30:57.055Z,100010.00
2018-08-16T19:33:24.562Z,100014.00
2018-08-16T19:35:52.115Z,100020.00
2018-08-16T19:38:19.573Z,100008.00
2018-08-16T19:40:47.083Z,100011.00
2018-08-16T19:43:14.595Z,100006.00
2018-08-16T19:45:42.115Z,100004.00
2018-08-16T19:48:09.753Z,100003.00
2018-08-16T19:50:37.151Z,100003.00
2018-08-16T19:53:04.672Z,100010.00
2018-08-16T19:55:32.199Z,100011.00
2018-08-16T19:57:59.724Z,99999.00
2018-08-16T20:00:27.256Z,100000.00
2018-08-16T20:02:54.790Z,99998.00
2018-08-16T20:05:22.260Z,99994.00
2018-08-16T20:07:49.767Z,99995.00
2018-08-16T20:10:17.287Z,99999.00
2018-08-16T20:12:44.795Z,99993.00
2018-08-16T20:15:12.336Z,99990.00
2018-08-16T20:17:39.844Z,99996.00
2018-08-16T20:20:07.858Z,99991.00
2018-08-16T20:22:35.363Z,99994.00
2018-08-16T20:25:03.143Z,99991.00
2018-08-16T20:27:30.642Z,100004.00
2018-08-16T20:29:58.155Z,99996.00
2018-08-16T20:32:25.654Z,100003.00
2018-08-16T20:34:53.163Z,100004.00
2018-08-16T20:37:20.662Z,100005.00
2018-08-16T20:39:48.196Z,100001.00
2018-08-16T20:42:15.717Z,100000.00
2018-08-16T20:44:43.240Z,100002.00
2018-08-16T20:47:10.751Z,100000.00
2018-08-16T20:49:38.264Z,99994.00
2018-08-16T20:52:05.764Z,99997.00
2018-08-16T20:54:33.275Z,99998.00
2018-08-16T20:57:00.776Z,100001.00
2018-08-16T20:59:28.288Z,100002.00
2018-08-16T21:01:55.785Z,100010.00
2018-08-16T21:04:23.300Z,100008.00
2018-08-16T21:06:50.804Z,100010.00
2018-08-16T21:09:18.306Z,100002.00
2018-08-16T21:11:45.815Z,100004.00
2018-08-16T21:14:13.316Z,100008.00
2018-08-16T21:16:40.819Z,100013.00
2018-08-16T21:19:08.315Z,100008.00
2018-08-16T21:21:35.848Z,100004.00
2018-08-16T21:24:03.352Z,100008.00
2018-08-16T21:26:30.842Z,100006.00
2018-08-16T21:28:58.359Z,100007.00
2018-08-16T21:31:25.870Z,100006.00
2018-08-16T21:33:53.623Z,100011.00
2018-08-16T21:36:21.140Z,100012.00
2018-08-16T21:38:48.647Z,100024.00
2018-08-16T21:41:16.163Z,100011.00
2018-08-16T21:43:43.672Z,100013.00
2018-08-16T21:46:11.185Z,100013.00
2018-08-16T21:48:38.679Z,100010.00
2018-08-16T21:51:06.344Z,100015.00
2018-08-16T21:53:34.107Z,100015.00
2018-08-16T21:56:01.636Z,100020.00
2018-08-16T21:58:29.135Z,100018.00
2018-08-16T22:01:01.834Z,100013.00
2018-08-16T22:03:29.666Z,100019.00
2018-08-16T22:06:02.841Z,100028.00
2018-08-16T22:08:48.252Z,100018.00
2018-08-16T22:11:15.819Z,100020.00
2018-08-16T22:13:43.325Z,100023.00
2018-08-16T22:16:11.051Z,100018.00
2018-08-16T22:18:38.683Z,100014.00
2018-08-16T22:21:06.359Z,100019.00
2018-08-16T22:23:33.859Z,100020.00
2018-08-16T22:26:01.421Z,100016.00
2018-08-16T22:28:28.895Z,100015.00
2018-08-16T22:30:56.800Z,100023.00
2018-08-16T22:33:24.314Z,100018.00
2018-08-16T22:35:51.833Z,100021.00
2018-08-16T22:38:19.335Z,100013.00
2018-08-16T22:40:46.831Z,100012.00
2018-08-16T22:43:14.348Z,100016.00
2018-08-16T22:45:41.870Z,100014.00
2018-08-16T22:48:09.367Z,100016.00
2018-08-16T22:50:37.070Z,100015.00
2018-08-16T22:53:04.956Z,100012.00
2018-08-16T22:55:33.012Z,100017.00
2018-08-16T22:58:00.519Z,100008.00
2018-08-16T23:00:28.045Z,100006.00
2018-08-16T23:02:55.566Z,100011.00
2018-08-16T23:05:23.079Z,100016.00
2018-08-16T23:07:50.578Z,100010.00
2018-08-16T23:10:18.371Z,100006.00
2018-08-16T23:12:45.885Z,100006.00
2018-08-16T23:15:13.402Z,100005.00
2018-08-16T23:17:40.916Z,100012.00
2018-08-16T23:20:09.015Z,100011.00
2018-08-16T23:22:36.560Z,100013.00
2018-08-16T23:25:04.867Z,100006.00
2018-08-16T23:27:32.372Z,100008.00
2018-08-16T23:29:59.904Z,100000.00
2018-08-16T23:32:27.454Z,100003.00
2018-08-16T23:34:55.107Z,100011.00
2018-08-16T23:37:22.619Z,100001.00
2018-08-16T23:39:50.132Z,100003.00
2018-08-16T23:42:17.731Z,99997.00
2018-08-16T23:44:45.640Z,99996.00
2018-08-16T23:47:13.149Z,99990.00
2018-08-16T23:49:40.638Z,99991.00
2018-08-16T23:52:08.176Z,99980.00
2018-08-16T23:54:35.675Z,99986.00
2018-08-16T23:57:03.199Z,99992.00
2018-08-16T23:59:30.704Z,99980.00
